createdAt,value
2017-11-09T00:00:22.729Z,12.00
2017-11-09T00:02:51.277Z,11.30
2017-11-09T00:05:25.164Z,9.87
2017-11-09T00:07:54.599Z,11.07
2017-11-09T00:10:23.854Z,14.10
2017-11-09T00:12:52.383Z,14.50
2017-11-09T00:15:20.908Z,12.93
2017-11-09T00:17:49.631Z,14.30
2017-11-09T00:20:18.142Z,16.23
2017-11-09T00:22:46.637Z,15.07
2017-11-09T00:25:15.173Z,17.03
2017-11-09T00:27:44.431Z,16.87
2017-11-09T00:30:13.659Z,19.20
2017-11-09T00:32:42.152Z,20.30
2017-11-09T00:35:10.685Z,15.60
2017-11-09T00:37:39.170Z,20.67
2017-11-09T00:40:07.632Z,21.83
2017-11-09T00:42:36.133Z,20.83
2017-11-09T00:45:04.267Z,19.90
2017-11-09T00:47:33.497Z,21.20
2017-11-09T00:50:02.219Z,21.60
2017-11-09T00:52:31.487Z,21.63
2017-11-09T00:55:00.200Z,21.70
2017-11-09T00:57:46.823Z,19.43
2017-11-09T01:00:15.315Z,23.47
2017-11-09T01:02:44.367Z,19.30
2017-11-09T01:05:12.878Z,22.60
2017-11-09T01:07:41.366Z,18.80
2017-11-09T01:10:09.883Z,19.70
2017-11-09T01:12:38.408Z,18.23
2017-11-09T01:15:06.913Z,18.93
2017-11-09T01:17:35.380Z,18.47
2017-11-09T01:20:04.326Z,16.63
2017-11-09T01:22:32.812Z,18.70
2017-11-09T01:25:01.283Z,19.17
2017-11-09T01:27:29.801Z,16.37
2017-11-09T01:29:58.283Z,20.03
2017-11-09T01:32:26.754Z,19.83
2017-11-09T01:34:56.026Z,19.30
2017-11-09T01:37:24.507Z,19.60
2017-11-09T01:39:52.615Z,21.80
2017-11-09T01:42:21.956Z,20.27
2017-11-09T01:44:50.434Z,19.50
2017-11-09T01:47:18.925Z,17.80
2017-11-09T01:49:48.309Z,18.83
2017-11-09T01:52:16.789Z,17.50
2017-11-09T01:54:45.312Z,21.07
2017-11-09T01:57:13.826Z,18.87
2017-11-09T01:59:42.334Z,21.03
2017-11-09T02:02:10.790Z,20.50
2017-11-09T02:04:38.994Z,22.50
2017-11-09T02:07:07.489Z,25.87
2017-11-09T02:09:35.979Z,24.97
2017-11-09T02:12:04.518Z,22.33
2017-11-09T02:14:32.988Z,24.23
2017-11-09T02:17:01.469Z,24.83
2017-11-09T02:19:29.981Z,21.60
2017-11-09T02:22:01.638Z,27.57
2017-11-09T02:24:29.745Z,29.07
2017-11-09T02:26:58.482Z,30.10
2017-11-09T02:29:26.650Z,21.07
2017-11-09T02:31:54.459Z,28.57
2017-11-09T02:34:22.231Z,26.20
2017-11-09T02:36:50.727Z,27.40
2017-11-09T02:39:18.919Z,32.70
2017-11-09T02:41:47.051Z,32.27
2017-11-09T02:44:15.512Z,31.53
2017-11-09T02:46:43.661Z,34.60
2017-11-09T02:49:12.144Z,32.40
2017-11-09T02:51:40.511Z,34.13
2017-11-09T02:54:08.348Z,32.63
2017-11-09T02:56:36.155Z,32.10
2017-11-09T02:59:04.500Z,31.70
2017-11-09T03:01:32.979Z,27.40
2017-11-09T03:04:01.489Z,27.27
2017-11-09T03:06:29.991Z,34.23
2017-11-09T03:08:58.484Z,27.93
2017-11-09T03:11:26.613Z,26.57
2017-11-09T03:13:55.099Z,33.67
2017-11-09T03:16:23.637Z,31.27
2017-11-09T03:18:52.125Z,36.43
2017-11-09T03:21:20.588Z,30.40
2017-11-09T03:23:49.104Z,28.20
2017-11-09T03:26:17.593Z,29.30
2017-11-09T03:28:46.823Z,30.10
2017-11-09T03:31:16.154Z,27.87
2017-11-09T03:33:44.619Z,29.80
2017-11-09T03:36:13.561Z,31.33
2017-11-09T03:38:42.025Z,37.30
2017-11-09T03:41:10.467Z,37.73
2017-11-09T03:43:38.918Z,31.97
2017-11-09T03:46:06.714Z,45.63
2017-11-09T03:48:35.180Z,33.87
2017-11-09T03:51:03.330Z,32.10
2017-11-09T03:53:31.820Z,30.77
2017-11-09T03:56:00.334Z,38.60
2017-11-09T03:58:29.575Z,36.03
2017-11-09T04:00:58.104Z,34.03
2017-11-09T04:03:26.593Z,34.40
2017-11-09T04:05:55.135Z,32.20
2017-11-09T04:08:24.407Z,34.53
2017-11-09T04:10:52.944Z,26.23
2017-11-09T04:13:22.186Z,28.87
2017-11-09T04:15:50.680Z,32.50
2017-11-09T04:18:19.158Z,26.83
2017-11-09T04:20:48.412Z,27.70
2017-11-09T04:23:16.949Z,24.43
2017-11-09T04:25:45.461Z,22.70
2017-11-09T04:28:13.930Z,33.50
2017-11-09T04:30:42.470Z,29.37
2017-11-09T04:33:10.977Z,28.37
2017-11-09T04:35:39.487Z,22.00
2017-11-09T04:38:08.015Z,23.40
2017-11-09T04:40:36.483Z,20.23
2017-11-09T04:43:04.965Z,19.60
2017-11-09T04:45:33.407Z,23.17
2017-11-09T04:48:01.894Z,19.60
2017-11-09T04:50:30.396Z,20.27
2017-11-09T04:52:59.673Z,21.30
2017-11-09T04:55:27.974Z,20.37
2017-11-09T04:57:56.434Z,19.07
2017-11-09T05:00:24.947Z,19.47
2017-11-09T05:02:53.395Z,19.70
2017-11-09T05:05:22.672Z,22.80
2017-11-09T05:07:51.176Z,18.17
2017-11-09T05:10:19.663Z,26.93
2017-11-09T05:12:48.127Z,19.30
2017-11-09T05:15:16.615Z,20.63
2017-11-09T05:17:45.144Z,23.23
2017-11-09T05:20:14.381Z,23.53
2017-11-09T05:22:42.905Z,21.10
2017-11-09T05:25:11.406Z,24.40
2017-11-09T05:27:39.897Z,20.50
2017-11-09T05:30:07.870Z,22.80
2017-11-09T05:32:36.380Z,25.27
2017-11-09T05:35:04.900Z,28.63
2017-11-09T05:37:33.148Z,25.00
2017-11-09T05:40:01.682Z,24.10
2017-11-09T05:42:30.185Z,23.93
2017-11-09T05:44:58.682Z,25.07
2017-11-09T05:47:27.175Z,22.37
2017-11-09T05:49:55.744Z,24.50
2017-11-09T05:52:24.335Z,22.87
2017-11-09T05:54:52.867Z,23.57
2017-11-09T05:57:21.449Z,21.23
2017-11-09T05:59:50.041Z,21.50
2017-11-09T06:02:18.565Z,19.00
2017-11-09T06:04:47.066Z,28.00
2017-11-09T06:07:15.607Z,26.23
2017-11-09T06:09:44.119Z,28.93
2017-11-09T06:12:12.602Z,28.27
2017-11-09T06:14:40.767Z,25.37
2017-11-09T06:17:10.014Z,32.30
2017-11-09T06:19:38.505Z,25.40
2017-11-09T06:22:06.974Z,26.47
2017-11-09T06:24:35.474Z,26.07
2017-11-09T06:27:03.996Z,26.30
2017-11-09T06:29:32.541Z,27.53
2017-11-09T06:32:01.024Z,24.00
2017-11-09T06:34:29.494Z,24.03
2017-11-09T06:36:58.844Z,26.60
2017-11-09T06:39:27.330Z,26.23
2017-11-09T06:41:55.814Z,25.77
2017-11-09T06:44:24.366Z,27.83
2017-11-09T06:46:52.839Z,29.20
2017-11-09T06:49:22.088Z,29.30
2017-11-09T06:51:50.689Z,31.80
2017-11-09T06:54:19.430Z,33.37
2017-11-09T06:56:47.941Z,30.03
2017-11-09T06:59:16.471Z,26.80
2017-11-09T07:01:44.327Z,26.57
2017-11-09T07:04:13.063Z,23.47
2017-11-09T07:06:41.617Z,27.07
2017-11-09T07:09:10.201Z,24.90
2017-11-09T07:11:38.876Z,24.67
2017-11-09T07:14:07.484Z,25.20
2017-11-09T07:16:35.954Z,20.83
2017-11-09T07:19:04.438Z,23.03
2017-11-09T07:21:32.946Z,20.07
2017-11-09T07:24:01.426Z,26.50
2017-11-09T07:26:29.939Z,23.73
2017-11-09T07:28:58.478Z,25.47
2017-11-09T07:31:26.972Z,22.83
2017-11-09T07:33:55.128Z,25.07
2017-11-09T07:36:23.627Z,23.63
2017-11-09T07:38:52.185Z,23.40
2017-11-09T07:41:20.744Z,21.27
2017-11-09T07:43:49.271Z,23.17
2017-11-09T07:46:17.782Z,21.93
2017-11-09T07:48:46.324Z,20.40
2017-11-09T07:51:14.844Z,22.63
2017-11-09T07:53:43.607Z,24.40
2017-11-09T07:56:12.247Z,24.93
2017-11-09T07:58:40.803Z,23.57
2017-11-09T08:01:10.058Z,26.20
2017-11-09T08:03:38.588Z,24.60
2017-11-09T08:06:07.159Z,22.83
2017-11-09T08:08:35.682Z,23.00
2017-11-09T08:11:03.904Z,26.27
2017-11-09T08:13:32.434Z,25.23
2017-11-09T08:16:00.942Z,23.80
2017-11-09T08:18:30.683Z,26.70
2017-11-09T08:20:59.834Z,27.23
2017-11-09T08:23:28.514Z,27.57
2017-11-09T08:25:57.766Z,25.90
2017-11-09T08:28:27.812Z,26.77
2017-11-09T08:30:56.416Z,26.07
2017-11-09T08:33:28.258Z,21.47
2017-11-09T08:35:56.556Z,23.07
2017-11-09T08:38:25.099Z,25.07
2017-11-09T08:40:53.638Z,23.53
2017-11-09T08:43:22.208Z,21.47
2017-11-09T08:45:50.717Z,27.63
2017-11-09T08:48:19.313Z,23.00
2017-11-09T08:50:47.839Z,19.43
2017-11-09T08:53:16.491Z,22.67
2017-11-09T08:55:45.142Z,23.77
2017-11-09T08:58:13.765Z,19.90
2017-11-09T09:00:42.284Z,18.97
2017-11-09T09:03:11.679Z,22.57
2017-11-09T09:05:40.177Z,25.13
2017-11-09T09:08:08.728Z,27.27
2017-11-09T09:10:37.086Z,19.93
2017-11-09T09:13:06.118Z,23.73
2017-11-09T09:15:34.632Z,21.30
2017-11-09T09:18:02.957Z,21.90
2017-11-09T09:20:32.034Z,21.13
2017-11-09T09:23:01.839Z,23.30
2017-11-09T09:25:32.799Z,24.23
2017-11-09T09:28:01.691Z,22.73
2017-11-09T09:30:30.037Z,26.60
2017-11-09T09:33:09.523Z,26.37
2017-11-09T09:35:42.715Z,13.57
2017-11-09T09:38:17.416Z,23.70
2017-11-09T09:40:48.152Z,23.87
2017-11-09T09:43:16.452Z,23.93
2017-11-09T09:45:44.839Z,20.87
2017-11-09T09:48:13.233Z,26.60
2017-11-09T09:50:41.760Z,23.37
2017-11-09T09:53:10.300Z,21.17
2017-11-09T09:55:38.789Z,23.77
2017-11-09T09:58:07.359Z,23.33
2017-11-09T10:00:35.690Z,20.67
2017-11-09T10:03:04.162Z,23.13
2017-11-09T10:05:32.685Z,20.97
2017-11-09T10:08:01.418Z,21.23
2017-11-09T10:10:30.033Z,23.40
2017-11-09T10:12:58.781Z,18.77
2017-11-09T10:15:27.332Z,21.93
2017-11-09T10:17:56.621Z,18.90
2017-11-09T10:20:25.121Z,23.07
2017-11-09T10:22:53.885Z,22.73
2017-11-09T10:25:22.403Z,20.17
2017-11-09T10:27:51.006Z,16.37
2017-11-09T10:30:19.531Z,21.87
2017-11-09T10:32:48.538Z,21.07
2017-11-09T10:35:17.255Z,23.83
2017-11-09T10:37:45.738Z,20.90
2017-11-09T10:40:14.211Z,22.43
2017-11-09T10:42:42.707Z,16.77
2017-11-09T10:45:10.875Z,16.03
2017-11-09T10:47:39.350Z,19.07
2017-11-09T10:50:07.585Z,18.97
2017-11-09T10:52:36.054Z,18.33
2017-11-09T10:55:04.506Z,21.40
2017-11-09T10:57:32.998Z,17.60
2017-11-09T11:00:03.701Z,20.73
2017-11-09T11:02:33.025Z,18.60
2017-11-09T11:05:02.308Z,24.73
2017-11-09T11:07:30.785Z,20.53
2017-11-09T11:09:59.348Z,24.10
2017-11-09T11:12:30.136Z,19.53
2017-11-09T11:14:58.711Z,23.67
2017-11-09T11:17:27.218Z,22.67
2017-11-09T11:19:55.769Z,24.80
2017-11-09T11:22:24.252Z,23.57
2017-11-09T11:24:53.121Z,22.00
2017-11-09T11:29:54.364Z,19.50
2017-11-09T11:32:24.506Z,21.70
2017-11-09T11:34:53.031Z,22.50
2017-11-09T11:37:21.559Z,25.27
2017-11-09T11:39:50.180Z,23.97
2017-11-09T11:42:18.676Z,20.30
2017-11-09T11:44:47.499Z,18.93
2017-11-09T11:47:16.036Z,20.87
2017-11-09T11:49:44.534Z,13.03
2017-11-09T11:52:13.183Z,14.23
2017-11-09T11:54:41.666Z,17.87
2017-11-09T11:57:10.168Z,19.53
2017-11-09T11:59:38.625Z,19.60
2017-11-09T12:02:08.660Z,19.87
2017-11-09T12:04:38.351Z,20.40
2017-11-09T12:07:06.953Z,19.17
2017-11-09T12:09:36.788Z,21.67
2017-11-09T12:12:04.965Z,18.73
2017-11-09T12:14:33.421Z,19.50
2017-11-09T12:17:01.897Z,19.00
2017-11-09T12:19:39.434Z,16.80
2017-11-09T12:22:08.058Z,15.50
2017-11-09T12:24:36.574Z,11.77
2017-11-09T12:27:05.084Z,18.70
2017-11-09T12:29:33.589Z,17.30
2017-11-09T12:32:02.180Z,18.50
2017-11-09T12:34:30.728Z,20.13
2017-11-09T12:36:59.361Z,16.80
2017-11-09T12:39:28.793Z,19.13
2017-11-09T12:41:57.305Z,19.37
2017-11-09T12:44:25.769Z,14.50
2017-11-09T12:46:54.084Z,18.50
2017-11-09T12:49:22.582Z,16.23
2017-11-09T12:51:50.726Z,18.43
2017-11-09T12:54:19.082Z,16.77
2017-11-09T12:56:49.427Z,17.70
2017-11-09T12:59:18.911Z,14.17
2017-11-09T13:01:47.307Z,10.40
2017-11-09T13:04:15.915Z,16.43
2017-11-09T13:06:44.203Z,11.47
2017-11-09T13:09:12.726Z,16.90
2017-11-09T13:11:41.009Z,16.37
2017-11-09T13:14:09.337Z,18.57
2017-11-09T13:16:37.638Z,19.00
2017-11-09T13:19:06.846Z,17.93
2017-11-09T13:21:35.311Z,19.40
2017-11-09T13:24:03.273Z,16.03
2017-11-09T13:26:31.806Z,16.60
2017-11-09T13:29:01.049Z,16.70
2017-11-09T13:31:29.341Z,17.80
2017-11-09T13:33:57.851Z,17.87
2017-11-09T13:36:26.332Z,18.40
2017-11-09T13:38:54.766Z,18.50
2017-11-09T13:41:23.312Z,20.53
2017-11-09T13:43:51.757Z,19.53
2017-11-09T13:46:20.192Z,22.17
2017-11-09T13:48:48.724Z,20.17
2017-11-09T13:51:17.189Z,20.17
2017-11-09T13:53:45.634Z,19.07
2017-11-09T13:56:14.141Z,19.10
2017-11-09T13:58:42.620Z,20.53
2017-11-09T14:01:11.149Z,20.30
2017-11-09T14:03:39.650Z,20.07
2017-11-09T14:06:08.150Z,22.83
2017-11-09T14:08:36.593Z,21.47
2017-11-09T14:11:08.218Z,22.00
2017-11-09T14:13:36.716Z,19.60
2017-11-09T14:16:05.200Z,18.60
2017-11-09T14:18:33.690Z,18.00
2017-11-09T14:21:02.924Z,22.63
2017-11-09T14:23:31.174Z,18.97
2017-11-09T14:25:59.654Z,18.20
2017-11-09T14:28:28.117Z,16.47
2017-11-09T14:30:56.609Z,17.50
2017-11-09T14:33:25.156Z,18.23
2017-11-09T14:35:53.653Z,10.10
2017-11-09T14:38:22.169Z,13.27
2017-11-09T14:40:51.502Z,14.20
2017-11-09T14:43:20.057Z,17.87
2017-11-09T14:45:48.560Z,9.47
2017-11-09T14:48:17.039Z,17.97
2017-11-09T14:50:45.536Z,15.43
2017-11-09T14:53:14.065Z,12.93
2017-11-09T14:55:42.596Z,15.83
2017-11-09T14:58:11.224Z,12.57
2017-11-09T15:00:46.612Z,17.00
2017-11-09T15:03:15.123Z,14.10
2017-11-09T15:05:43.717Z,13.60
2017-11-09T15:08:16.666Z,16.20
2017-11-09T15:10:47.300Z,18.30
2017-11-09T15:13:16.827Z,18.30
2017-11-09T15:15:51.899Z,16.10
2017-11-09T15:18:21.401Z,15.57
2017-11-09T15:20:50.893Z,10.67
2017-11-09T15:25:54.281Z,15.00
2017-11-09T15:28:23.604Z,15.23
2017-11-09T15:30:52.897Z,9.50
2017-11-09T15:33:22.282Z,11.40
2017-11-09T15:35:53.611Z,15.83
2017-11-09T15:38:23.203Z,14.67
2017-11-09T15:43:34.139Z,11.53
2017-11-09T15:46:03.615Z,14.80
2017-11-09T15:48:34.558Z,16.20
2017-11-09T15:51:04.088Z,15.10
2017-11-09T15:53:33.559Z,17.83
2017-11-09T15:56:03.039Z,15.70
2017-11-09T15:58:32.559Z,17.53
2017-11-09T16:03:41.181Z,16.37
2017-11-09T16:06:12.739Z,18.30
2017-11-09T16:08:42.262Z,13.90
2017-11-09T16:11:11.770Z,12.50
2017-11-09T16:13:41.326Z,13.00
2017-11-09T16:16:10.842Z,16.90
2017-11-09T16:21:32.914Z,15.70
2017-11-09T16:26:47.700Z,20.13
2017-11-09T16:32:08.129Z,16.10
2017-11-09T16:34:37.638Z,18.90
2017-11-09T16:37:07.219Z,15.40
2017-11-09T16:39:36.890Z,18.57
2017-11-09T16:42:06.549Z,16.83
2017-11-09T16:44:36.100Z,14.80
2017-11-09T16:47:05.710Z,19.70
2017-11-09T16:49:46.901Z,20.57
2017-11-09T16:52:16.464Z,15.23
2017-11-09T16:57:41.590Z,13.40
2017-11-09T17:00:11.167Z,13.00
2017-11-09T17:05:28.365Z,16.70
2017-11-09T17:08:15.147Z,18.73
2017-11-09T17:10:44.654Z,15.10
2017-11-09T17:13:15.573Z,15.33
2017-11-09T17:15:45.135Z,15.90
2017-11-09T17:20:58.820Z,15.60
2017-11-09T17:23:29.372Z,16.30
2017-11-09T17:25:58.964Z,9.60
2017-11-09T17:28:31.899Z,14.87
2017-11-09T17:31:04.359Z,17.00
2017-11-09T17:33:33.861Z,13.40
2017-11-09T17:36:03.441Z,16.00
2017-11-09T17:38:44.110Z,16.50
2017-11-09T17:41:21.803Z,10.43
2017-11-09T17:43:51.475Z,10.70
2017-11-09T17:46:21.014Z,9.57
2017-11-09T17:48:50.518Z,11.60
2017-11-09T17:51:20.055Z,8.17
2017-11-09T17:54:02.652Z,12.40
2017-11-09T17:59:15.320Z,9.07
2017-11-09T18:01:44.870Z,14.30
2017-11-09T18:04:16.465Z,15.87
2017-11-09T18:06:48.559Z,11.23
2017-11-09T18:09:18.200Z,17.73
2017-11-09T18:11:47.798Z,12.63
2017-11-09T18:14:17.315Z,9.43
2017-11-09T18:16:47.026Z,17.17
2017-11-09T18:19:16.580Z,11.87
2017-11-09T18:21:52.994Z,14.30
2017-11-09T18:24:23.523Z,18.77
2017-11-09T18:26:58.812Z,15.67
2017-11-09T18:29:28.711Z,18.03
2017-11-09T18:32:03.744Z,15.50
2017-11-09T18:34:33.269Z,13.07
2017-11-09T18:37:02.743Z,13.10
2017-11-09T18:39:32.228Z,14.63
2017-11-09T18:42:01.749Z,14.33
2017-11-09T18:44:31.289Z,13.83
2017-11-09T18:47:01.180Z,17.30
2017-11-09T18:49:30.733Z,15.17
2017-11-09T18:52:00.183Z,15.70
2017-11-09T18:54:29.691Z,15.47
2017-11-09T18:56:59.229Z,16.10
2017-11-09T18:59:30.222Z,6.07
2017-11-09T19:10:36.236Z,12.07
2017-11-09T19:16:04.415Z,8.83
2017-11-09T19:18:34.678Z,13.40
2017-11-09T19:21:21.594Z,12.73
2017-11-09T19:23:50.853Z,9.17
2017-11-09T19:26:19.362Z,12.53
2017-11-09T19:28:47.911Z,15.40
2017-11-09T19:31:16.407Z,15.17
2017-11-09T19:33:44.887Z,13.67
2017-11-09T19:36:13.542Z,13.33
2017-11-09T19:38:42.952Z,10.97
2017-11-09T19:41:11.522Z,14.77
2017-11-09T19:43:43.581Z,13.03
2017-11-09T19:46:12.054Z,12.30
2017-11-09T19:48:40.568Z,11.30
2017-11-09T19:51:11.127Z,13.77
2017-11-09T19:53:40.238Z,15.47
2017-11-09T19:56:09.156Z,8.37
2017-11-09T19:58:37.748Z,13.93
2017-11-09T20:01:06.238Z,10.20
2017-11-09T20:03:34.817Z,10.33
2017-11-09T20:06:03.207Z,12.73
2017-11-09T20:08:32.510Z,8.97
2017-11-09T20:11:01.081Z,14.00
2017-11-09T20:13:29.718Z,13.20
2017-11-09T20:15:58.413Z,11.13
2017-11-09T20:18:27.532Z,16.30
2017-11-09T20:20:56.049Z,7.90
2017-11-09T20:23:25.003Z,17.83
2017-11-09T20:25:56.470Z,17.50
2017-11-09T20:28:26.113Z,13.77
2017-11-09T20:30:55.623Z,13.97
2017-11-09T20:33:24.926Z,13.03
2017-11-09T20:36:03.316Z,9.90
2017-11-09T20:38:32.955Z,12.83
2017-11-09T20:41:01.275Z,13.47
2017-11-09T20:43:30.826Z,10.97
2017-11-09T20:45:59.599Z,20.73
2017-11-09T20:48:28.136Z,14.10
2017-11-09T20:50:57.355Z,8.53
2017-11-09T20:53:25.909Z,11.60
2017-11-09T20:55:55.901Z,8.17
2017-11-09T20:58:24.388Z,14.00
2017-11-09T21:00:55.396Z,14.50
2017-11-09T21:03:25.928Z,7.40
2017-11-09T21:05:55.314Z,14.00
2017-11-09T21:08:25.883Z,18.13
2017-11-09T21:10:55.391Z,10.17
2017-11-09T21:13:23.866Z,9.03
2017-11-09T21:15:54.282Z,10.70
2017-11-09T21:18:22.798Z,7.50
2017-11-09T21:20:51.503Z,10.20
2017-11-09T21:23:20.785Z,12.03
2017-11-09T21:25:49.367Z,11.00
2017-11-09T21:28:18.426Z,9.90
2017-11-09T21:30:47.767Z,10.90
2017-11-09T21:33:16.305Z,11.00
2017-11-09T21:35:44.855Z,7.63
2017-11-09T21:38:14.791Z,8.57
2017-11-09T21:40:44.811Z,9.93
2017-11-09T21:43:13.478Z,12.17
2017-11-09T21:45:54.100Z,4.60
2017-11-09T21:48:22.607Z,5.93
2017-11-09T21:50:52.621Z,10.27
2017-11-09T21:53:21.154Z,8.30
2017-11-09T21:55:49.622Z,8.20
2017-11-09T21:58:18.124Z,8.40
2017-11-09T22:00:46.524Z,8.60
2017-11-09T22:03:15.092Z,7.60
2017-11-09T22:05:43.568Z,8.13
2017-11-09T22:08:12.098Z,9.30
2017-11-09T22:10:41.998Z,12.27
2017-11-09T22:13:11.625Z,6.63
2017-11-09T22:15:40.150Z,8.40
2017-11-09T22:18:08.660Z,10.17
2017-11-09T22:20:38.614Z,6.90
2017-11-09T22:23:08.180Z,9.73
2017-11-09T22:25:36.710Z,8.13
2017-11-09T22:28:05.240Z,7.07
2017-11-09T22:30:33.762Z,5.90
2017-11-09T22:33:02.295Z,7.60
2017-11-09T22:35:30.645Z,9.37
2017-11-09T22:37:59.157Z,5.47
2017-11-09T22:40:27.658Z,8.23
2017-11-09T22:42:55.944Z,5.13
2017-11-09T22:45:24.453Z,6.50
2017-11-09T22:47:52.975Z,5.33
2017-11-09T22:50:21.497Z,6.17
2017-11-09T22:52:49.966Z,3.93
2017-11-09T22:55:19.278Z,5.70
2017-11-09T22:57:48.991Z,8.23
2017-11-09T23:00:18.937Z,5.63
2017-11-09T23:02:48.327Z,5.60
2017-11-09T23:05:16.878Z,3.83
2017-11-09T23:07:45.360Z,7.77
2017-11-09T23:10:13.675Z,6.37
2017-11-09T23:12:41.974Z,7.00
2017-11-09T23:15:10.471Z,5.10
2017-11-09T23:17:40.096Z,8.90
2017-11-09T23:20:08.622Z,5.93
2017-11-09T23:22:38.246Z,7.70
2017-11-09T23:25:06.787Z,5.57
2017-11-09T23:27:35.265Z,9.40
2017-11-09T23:30:03.395Z,7.73
2017-11-09T23:32:31.909Z,5.80
2017-11-09T23:35:01.204Z,5.27
2017-11-09T23:37:29.721Z,5.13
2017-11-09T23:39:58.226Z,5.20
2017-11-09T23:42:27.503Z,8.90
2017-11-09T23:44:56.992Z,7.93
2017-11-09T23:47:25.468Z,7.07
2017-11-09T23:49:53.996Z,5.07
2017-11-09T23:52:33.530Z,3.07
2017-11-09T23:55:03.109Z,6.37
2017-11-09T23:57:32.495Z,8.40
